Terminal Aerodrome Forecast
Issued by NWS Shreveport, LA

Home | Current Version | Previous Version | Text Only | Print | Product List | Glossary On
Versions: 1 2 3 4 5 6 7 8 9 10 11 12 13
000
FTUS44 KSHV 272331
TAFGGG
TAF
KGGG 272331Z 2800/2824 VRB06KT P6SM VCTS SCT050CB SCT100 BKN250
      TEMPO 2800/2803 VRB15G30KT 3SM -TSRA BR BKN040CB
     FM280600 VRB05KT P6SM SCT060 SCT120 BKN250
     FM281400 22008KT P6SM SCT020 SCT140 BKN250
     FM281800 24010KT P6SM VCTS SCT045CB BKN250=

USA.gov is the U.S. government's official web portal to all federal, state and local government web resources and services.